Time;durP1;ratioP1;P1;durP2;ratioP2;P2;SDS_P1;SDS_P2;PMS_P1;PMS_P2;Temp;Humidity;BMP_temperature;BMP_pressure;BME280_temperature;BME280_humidity;BME280_pressure;Samples;Min_cycle;Max_cycle;Signal;HPM_P1;HPM_P2
2023/09/12 00:02:19;;;;;;;16.20;7.73;;;;;;;19.67;100.00;100482.03;6024925;28;20053;-68
2023/09/12 00:05:14;;;;;;;15.00;7.28;;;;;;;19.60;100.00;100506.25;6024305;28;20500;-68
2023/09/12 00:08:10;;;;;;;17.13;7.30;;;;;;;19.57;100.00;100528.19;6025114;28;20038;-67
2023/09/12 00:11:10;;;;;;;15.77;7.47;;;;;;;19.34;100.00;100525.91;6039786;28;20022;-68
2023/09/12 00:14:05;;;;;;;18.40;8.10;;;;;;;19.32;100.00;100541.41;6026213;28;20616;-68
2023/09/12 00:17:00;;;;;;;12.27;8.03;;;;;;;19.23;100.00;100545.34;6028704;28;20081;-68
2023/09/12 00:19:56;;;;;;;17.23;8.60;;;;;;;19.17;100.00;100556.94;6029013;28;20026;-67
2023/09/12 00:22:53;;;;;;;17.20;8.63;;;;;;;19.20;100.00;100555.69;6028872;28;20050;-67
2023/09/12 00:25:50;;;;;;;18.17;9.57;;;;;;;19.29;100.00;100536.47;6028064;28;20057;-68
2023/09/12 00:28:45;;;;;;;16.95;8.10;;;;;;;19.39;100.00;100528.84;6028818;28;20030;-67
2023/09/12 00:31:40;;;;;;;16.77;8.30;;;;;;;19.59;100.00;100536.91;6028707;28;20053;-68
2023/09/12 00:34:36;;;;;;;19.07;9.30;;;;;;;19.60;100.00;100527.78;6027993;28;20402;-68
2023/09/12 00:37:31;;;;;;;18.10;9.33;;;;;;;19.67;100.00;100504.38;6028709;28;20038;-67
2023/09/12 00:40:26;;;;;;;15.40;7.97;;;;;;;19.86;100.00;100497.31;6028553;28;20048;-67
2023/09/12 00:43:21;;;;;;;19.45;8.88;;;;;;;19.94;100.00;100479.06;6028502;28;20034;-68
2023/09/12 00:46:19;;;;;;;14.97;7.93;;;;;;;20.09;100.00;100481.47;6027738;28;20039;-68
2023/09/12 00:49:15;;;;;;;17.05;7.85;;;;;;;20.06;100.00;100482.72;6029033;28;20030;-68
2023/09/12 00:52:11;;;;;;;15.15;8.57;;;;;;;19.63;100.00;100476.22;6027591;28;20030;-68
2023/09/12 00:55:06;;;;;;;16.45;7.70;;;;;;;19.39;100.00;100512.69;6022575;28;20061;-67
2023/09/12 00:58:02;;;;;;;18.92;9.30;;;;;;;19.29;100.00;100546.41;6027959;28;20455;-68
2023/09/12 01:00:58;;;;;;;16.48;8.68;;;;;;;19.30;100.00;100523.81;6027960;28;20026;-68
2023/09/12 01:03:54;;;;;;;19.70;9.50;;;;;;;19.18;100.00;100487.84;6027588;28;20034;-67
2023/09/12 01:06:49;;;;;;;20.80;10.13;;;;;;;19.17;100.00;100491.56;6028044;28;20106;-68
2023/09/12 01:09:45;;;;;;;17.35;9.27;;;;;;;19.05;100.00;100493.25;6020880;28;20120;-67
2023/09/12 01:12:40;;;;;;;20.07;10.30;;;;;;;19.07;100.00;100485.78;6027660;28;20034;-68
2023/09/12 01:15:35;;;;;;;18.53;9.67;;;;;;;19.34;100.00;100487.44;6025194;28;20489;-67
2023/09/12 01:18:31;;;;;;;19.33;9.60;;;;;;;19.18;100.00;100506.69;6027568;28;20769;-67
2023/09/12 01:21:47;;;;;;;20.90;10.48;;;;;;;18.97;100.00;100497.75;6043763;28;20070;-67
2023/09/12 01:24:52;;;;;;;19.00;9.35;;;;;;;18.91;100.00;100489.72;6023839;28;20478;-67
2023/09/12 01:27:50;;;;;;;17.77;9.88;;;;;;;18.86;100.00;100511.00;6027461;28;20026;-67
2023/09/12 01:30:47;;;;;;;20.35;9.27;;;;;;;18.95;100.00;100490.94;6014922;28;20057;-68
2023/09/12 01:33:43;;;;;;;19.73;9.27;;;;;;;18.96;100.00;100484.53;6026556;28;20105;-67
2023/09/12 01:36:38;;;;;;;17.13;10.03;;;;;;;18.80;100.00;100504.59;6027389;28;20080;-67
2023/09/12 01:39:33;;;;;;;16.67;9.25;;;;;;;18.80;100.00;100491.16;6027284;28;20030;-68
2023/09/12 01:42:32;;;;;;;18.70;8.83;;;;;;;18.88;100.00;100499.00;6025660;28;20397;-67
2023/09/12 01:45:28;;;;;;;14.35;8.25;;;;;;;18.90;100.00;100518.44;6026518;28;20038;-68
2023/09/12 01:48:26;;;;;;;19.50;10.20;;;;;;;18.82;100.00;100521.31;6026864;28;20180;-67
2023/09/12 01:51:22;;;;;;;16.13;9.00;;;;;;;19.07;100.00;100496.53;6042190;28;20397;-68
2023/09/12 01:54:18;;;;;;;17.48;8.50;;;;;;;19.01;100.00;100509.78;6025170;28;20031;-67
2023/09/12 01:57:14;;;;;;;15.52;8.25;;;;;;;18.91;100.00;100517.41;6041600;28;20038;-67
2023/09/12 02:00:11;;;;;;;16.95;8.60;;;;;;;19.06;100.00;100511.00;6027030;28;20379;-67
2023/09/12 02:03:06;;;;;;;17.50;9.43;;;;;;;18.99;100.00;100468.84;6026267;28;20089;-67
2023/09/12 02:06:01;;;;;;;19.90;8.77;;;;;;;19.17;100.00;100492.41;6026118;28;20027;-67
2023/09/12 02:08:56;;;;;;;14.73;8.87;;;;;;;19.19;100.00;100506.44;6026337;28;20358;-67
2023/09/12 02:11:52;;;;;;;15.77;8.77;;;;;;;18.79;100.00;100500.22;6026452;28;20022;-67
2023/09/12 02:14:47;;;;;;;14.63;9.40;;;;;;;18.54;100.00;100504.50;6026029;28;20026;-67
2023/09/12 02:17:42;;;;;;;17.80;8.57;;;;;;;18.40;100.00;100518.88;6025730;28;20057;-68
2023/09/12 02:20:41;;;;;;;14.33;8.07;;;;;;;18.26;100.00;100527.94;6026352;28;20108;-68
2023/09/12 02:23:37;;;;;;;14.27;8.27;;;;;;;18.25;100.00;100520.91;6025864;28;20057;-67
2023/09/12 02:26:35;;;;;;;13.73;8.82;;;;;;;18.16;100.00;100528.31;6025932;28;20492;-67
2023/09/12 02:29:32;;;;;;;16.42;8.60;;;;;;;18.06;100.00;100532.38;6026222;28;20438;-67
2023/09/12 02:32:27;;;;;;;15.52;9.18;;;;;;;17.96;100.00;100537.28;6026030;28;20065;-68
2023/09/12 02:35:23;;;;;;;16.57;8.80;;;;;;;17.84;100.00;100532.47;6024927;28;20379;-67
2023/09/12 02:38:18;;;;;;;16.70;10.07;;;;;;;17.78;100.00;100530.56;6025624;28;20528;-67
2023/09/12 02:41:13;;;;;;;20.07;9.23;;;;;;;17.75;100.00;100539.00;6021749;28;20069;-67
2023/09/12 02:44:09;;;;;;;17.27;10.27;;;;;;;17.72;100.00;100543.94;6022622;28;20340;-68
2023/09/12 02:47:04;;;;;;;15.83;9.50;;;;;;;17.88;100.00;100569.66;6025111;28;20018;-67
2023/09/12 02:50:00;;;;;;;16.75;9.68;;;;;;;17.87;100.00;100558.09;6018946;28;20274;-67
2023/09/12 02:52:55;;;;;;;14.37;9.17;;;;;;;18.26;100.00;100573.59;6017980;28;20513;-67
2023/09/12 02:55:51;;;;;;;16.47;10.33;;;;;;;18.23;100.00;100557.88;6024954;28;20038;-67
2023/09/12 02:58:46;;;;;;;16.50;10.15;;;;;;;18.14;100.00;100567.13;6024196;28;20026;-67
2023/09/12 03:01:41;;;;;;;18.07;10.20;;;;;;;18.16;100.00;100557.00;6025460;28;20590;-68
2023/09/12 03:04:37;;;;;;;20.37;10.67;;;;;;;18.09;100.00;100559.66;6017221;28;20605;-67
2023/09/12 03:07:32;;;;;;;15.53;9.33;;;;;;;18.00;100.00;100568.06;6025169;28;20085;-67
2023/09/12 03:10:27;;;;;;;15.03;9.20;;;;;;;18.14;100.00;100575.16;6022561;28;20034;-67
2023/09/12 03:13:26;;;;;;;21.20;10.40;;;;;;;18.01;100.00;100572.41;6025282;28;20065;-67
2023/09/12 03:16:23;;;;;;;16.88;10.13;;;;;;;18.00;100.00;100606.47;6024871;28;20034;-67
2023/09/12 03:19:19;;;;;;;17.05;10.20;;;;;;;17.92;100.00;100609.28;6025630;28;20035;-66
2023/09/12 03:22:15;;;;;;;20.33;10.87;;;;;;;17.91;100.00;100594.22;6025162;28;20061;-67
2023/09/12 03:25:10;;;;;;;19.52;11.65;;;;;;;18.05;100.00;100593.28;6024916;28;20397;-67
2023/09/12 03:28:06;;;;;;;17.80;10.17;;;;;;;17.99;100.00;100599.44;6025329;28;20034;-66
2023/09/12 03:31:13;;;;;;;22.90;11.77;;;;;;;17.89;100.00;100604.31;6025247;28;20030;-67
2023/09/12 03:34:08;;;;;;;17.80;10.65;;;;;;;17.96;100.00;100586.44;6022411;28;20050;-67
2023/09/12 03:37:03;;;;;;;19.90;11.70;;;;;;;18.05;100.00;100597.81;6025026;28;20035;-67
2023/09/12 03:39:59;;;;;;;22.33;11.63;;;;;;;18.09;100.00;100599.94;6025350;28;20069;-67
2023/09/12 03:42:54;;;;;;;17.07;10.90;;;;;;;18.16;100.00;100599.94;6025138;28;20042;-67
2023/09/12 03:45:49;;;;;;;23.10;11.30;;;;;;;18.21;100.00;100566.09;6024422;28;20552;-68
2023/09/12 03:48:45;;;;;;;24.83;11.03;;;;;;;18.34;100.00;100586.84;6028390;28;20478;-67
2023/09/12 03:51:41;;;;;;;17.50;10.45;;;;;;;18.40;100.00;100575.28;6027416;28;20493;-67
2023/09/12 03:54:36;;;;;;;18.07;10.60;;;;;;;18.28;100.00;100561.63;6028994;28;20034;-67
2023/09/12 03:57:31;;;;;;;18.97;11.37;;;;;;;18.22;100.00;100566.94;6029427;28;20641;-67
2023/09/12 04:00:27;;;;;;;19.87;11.90;;;;;;;18.29;100.00;100586.63;6030561;28;20293;-67
2023/09/12 04:03:22;;;;;;;20.37;12.47;;;;;;;18.15;100.00;100591.09;6031212;28;20385;-67
2023/09/12 04:06:17;;;;;;;21.52;11.25;;;;;;;18.02;100.00;100601.72;6028852;28;20033;-67
2023/09/12 04:09:13;;;;;;;17.70;10.65;;;;;;;17.93;100.00;100610.13;6029377;28;20472;-68
2023/09/12 04:12:09;;;;;;;19.77;11.65;;;;;;;17.91;100.00;100649.75;6028366;28;20052;-68
2023/09/12 04:15:05;;;;;;;21.80;12.07;;;;;;;17.89;100.00;100659.84;6028722;28;20102;-67
2023/09/12 04:18:00;;;;;;;18.48;11.38;;;;;;;17.97;100.00;100665.06;6028944;28;20324;-67
2023/09/12 04:20:57;;;;;;;22.20;12.95;;;;;;;18.02;100.00;100678.75;6028971;28;20030;-67
2023/09/12 04:23:52;;;;;;;24.30;12.50;;;;;;;18.24;100.00;100691.91;6028328;28;20028;-67
2023/09/12 04:26:47;;;;;;;23.97;13.10;;;;;;;18.42;100.00;100702.16;6028318;28;20031;-67
2023/09/12 04:29:43;;;;;;;22.03;12.90;;;;;;;18.56;100.00;100692.34;6029037;28;20046;-67
2023/09/12 04:32:38;;;;;;;22.80;13.13;;;;;;;18.53;100.00;100661.34;6028918;28;20034;-68
2023/09/12 04:35:34;;;;;;;22.80;13.50;;;;;;;18.63;100.00;100667.16;6027015;28;20289;-67
2023/09/12 04:38:29;;;;;;;20.15;12.98;;;;;;;18.77;100.00;100657.31;6028683;28;20072;-67
2023/09/12 04:41:24;;;;;;;22.38;11.70;;;;;;;18.78;100.00;100621.38;6027936;28;20030;-68
2023/09/12 04:44:20;;;;;;;21.40;11.73;;;;;;;18.85;100.00;100596.16;6028114;28;20478;-67
2023/09/12 04:47:15;;;;;;;20.70;12.07;;;;;;;18.87;100.00;100583.34;6028576;28;20035;-67
2023/09/12 04:50:11;;;;;;;20.70;12.47;;;;;;;18.77;100.00;100566.78;6028170;28;20045;-67
2023/09/12 04:53:06;;;;;;;21.58;12.85;;;;;;;18.94;100.00;100578.81;6028293;28;20034;-67
2023/09/12 04:56:03;;;;;;;21.97;12.87;;;;;;;18.96;100.00;100576.75;6026588;28;20096;-68
2023/09/12 04:58:58;;;;;;;21.92;12.65;;;;;;;18.96;100.00;100592.88;6027420;28;20033;-67
2023/09/12 05:01:53;;;;;;;21.07;11.63;;;;;;;18.93;100.00;100571.78;6028233;28;20034;-67
2023/09/12 05:04:48;;;;;;;26.43;12.40;;;;;;;18.87;100.00;100577.97;6023431;28;20375;-67
2023/09/12 05:07:44;;;;;;;16.80;10.40;;;;;;;19.07;100.00;100582.56;6026118;28;20038;-68
2023/09/12 05:10:39;;;;;;;19.07;10.73;;;;;;;19.24;100.00;100586.53;6027575;28;20045;-66
2023/09/12 05:13:34;;;;;;;20.43;11.83;;;;;;;19.18;100.00;100590.03;6026516;28;20473;-67
2023/09/12 05:16:30;;;;;;;19.23;12.00;;;;;;;19.09;100.00;100577.78;6027765;28;20412;-66
2023/09/12 05:19:26;;;;;;;18.80;11.20;;;;;;;19.10;100.00;100568.72;6023783;28;20301;-68
2023/09/12 05:22:21;;;;;;;21.52;10.82;;;;;;;19.27;100.00;100569.97;6027024;28;20049;-68
2023/09/12 05:25:16;;;;;;;23.13;11.67;;;;;;;19.11;100.00;100562.28;6026051;28;20069;-68
2023/09/12 05:28:15;;;;;;;19.30;11.17;;;;;;;19.27;100.00;100561.91;6027320;28;20026;-67
2023/09/12 05:31:11;;;;;;;18.15;9.98;;;;;;;19.55;100.00;100554.47;6026764;28;20432;-66
2023/09/12 05:34:06;;;;;;;16.80;9.90;;;;;;;19.67;100.00;100579.72;6026124;28;20045;-67
2023/09/12 05:37:02;;;;;;;19.10;10.80;;;;;;;19.71;100.00;100589.03;6026707;28;20066;-69
2023/09/12 05:39:57;;;;;;;18.50;10.75;;;;;;;19.84;100.00;100612.44;6026740;28;20209;-67
2023/09/12 05:42:53;;;;;;;17.60;10.27;;;;;;;19.99;100.00;100611.16;6026874;28;20030;-66
2023/09/12 05:45:48;;;;;;;13.90;8.63;;;;;;;19.97;100.00;100607.84;6026365;28;20481;-66
2023/09/12 05:48:43;;;;;;;15.83;8.63;;;;;;;20.17;100.00;100623.94;6026978;28;20034;-66
2023/09/12 05:51:38;;;;;;;13.37;8.93;;;;;;;20.13;100.00;100641.59;6024223;28;20278;-69
2023/09/12 05:54:34;;;;;;;17.77;9.17;;;;;;;19.88;100.00;100644.09;6025026;28;20118;-67
2023/09/12 05:57:33;;;;;;;20.17;9.37;;;;;;;19.70;100.00;100638.53;6026815;28;20306;-68
2023/09/12 06:00:28;;;;;;;19.42;9.27;;;;;;;19.86;100.00;100650.72;6026348;28;20030;-67
2023/09/12 06:03:23;;;;;;;17.25;9.63;;;;;;;19.78;100.00;100651.75;6026341;28;20053;-66
2023/09/12 06:06:19;;;;;;;17.90;8.57;;;;;;;19.83;100.00;100659.22;6026294;28;20036;-67
2023/09/12 06:09:14;;;;;;;19.10;9.13;;;;;;;19.82;100.00;100669.16;6084953;23;20290;-65
2023/09/12 06:12:09;;;;;;;14.40;8.63;;;;;;;19.60;100.00;100659.59;6002546;28;20043;-65
2023/09/12 06:15:05;;;;;;;16.07;7.83;;;;;;;19.59;100.00;100685.69;6001996;28;20492;-66
2023/09/12 06:18:00;;;;;;;14.60;8.40;;;;;;;19.63;100.00;100702.25;6002724;28;20500;-66
2023/09/12 06:20:56;;;;;;;15.13;8.77;;;;;;;19.39;100.00;100709.03;6002818;28;20073;-66
2023/09/12 06:24:11;;;;;;;17.17;9.10;;;;;;;19.39;100.00;100748.56;5999490;28;20026;-62
2023/09/12 06:27:06;;;;;;;22.42;10.50;;;;;;;19.29;100.00;100748.91;6000345;28;20031;-64
2023/09/12 06:30:02;;;;;;;22.00;11.47;;;;;;;19.17;100.00;100750.50;5997831;28;20525;-65
2023/09/12 06:32:57;;;;;;;23.08;12.48;;;;;;;18.52;100.00;100725.97;6001247;28;20093;-66
2023/09/12 06:35:52;;;;;;;26.27;13.03;;;;;;;18.52;100.00;100734.88;5996091;28;20082;-66
2023/09/12 06:38:48;;;;;;;20.73;12.10;;;;;;;18.48;100.00;100752.41;6002104;28;20049;-65
2023/09/12 06:41:44;;;;;;;22.10;12.05;;;;;;;18.28;100.00;100737.97;6002778;28;20697;-66
2023/09/12 06:44:39;;;;;;;25.30;12.18;;;;;;;18.34;100.00;100753.31;6001494;28;20078;-66
2023/09/12 06:47:35;;;;;;;23.83;12.03;;;;;;;18.30;100.00;100725.19;6002721;28;20062;-67
2023/09/12 06:50:30;;;;;;;24.20;11.33;;;;;;;18.39;100.00;100732.06;6002189;28;20073;-68
2023/09/12 06:53:25;;;;;;;25.30;12.27;;;;;;;18.61;100.00;100722.13;6000991;28;20038;-69
2023/09/12 06:56:21;;;;;;;21.00;11.73;;;;;;;18.19;100.00;100717.66;6001872;28;20397;-68
2023/09/12 06:59:16;;;;;;;24.50;12.65;;;;;;;18.05;100.00;100715.91;6001887;28;20031;-67
2023/09/12 07:02:12;;;;;;;24.85;13.27;;;;;;;18.11;100.00;100725.88;6002508;28;20031;-66
2023/09/12 07:05:08;;;;;;;29.10;14.13;;;;;;;18.09;100.00;100703.75;6001262;28;20035;-65
2023/09/12 07:08:04;;;;;;;27.75;14.10;;;;;;;18.04;100.00;100698.16;6001927;28;20515;-66
2023/09/12 07:11:05;;;;;;;28.23;15.45;;;;;;;18.16;100.00;100702.78;6003734;28;20386;-66
2023/09/12 07:14:00;;;;;;;26.02;14.15;;;;;;;18.13;100.00;100681.69;6000973;28;20102;-67
2023/09/12 07:16:55;;;;;;;23.47;13.33;;;;;;;18.02;100.00;100647.34;6002171;28;20047;-66
2023/09/12 07:19:51;;;;;;;25.17;13.10;;;;;;;18.10;100.00;100657.13;6001542;28;20304;-65
2023/09/12 07:22:46;;;;;;;27.60;15.80;;;;;;;18.11;100.00;100635.44;6003099;28;20556;-66
2023/09/12 07:25:41;;;;;;;31.40;16.37;;;;;;;18.05;100.00;100627.34;6005657;28;20030;-65
2023/09/12 07:28:37;;;;;;;32.70;17.63;;;;;;;18.19;100.00;100616.50;5998774;28;20074;-65
2023/09/12 07:31:32;;;;;;;35.38;18.70;;;;;;;18.19;100.00;100588.81;6001426;28;20050;-65
2023/09/12 07:34:27;;;;;;;34.67;19.60;;;;;;;18.20;100.00;100577.06;6001870;28;20118;-65
2023/09/12 07:37:23;;;;;;;32.23;17.57;;;;;;;18.11;100.00;100572.88;6006505;28;20349;-65
2023/09/12 07:40:18;;;;;;;34.83;17.87;;;;;;;18.22;100.00;100588.41;6006547;28;20031;-65
2023/09/12 07:43:13;;;;;;;34.87;18.47;;;;;;;18.17;100.00;100590.88;6006075;28;20034;-65
2023/09/12 07:46:09;;;;;;;36.90;20.10;;;;;;;18.19;100.00;100588.81;6003787;28;20409;-65
2023/09/12 07:49:04;;;;;;;35.37;21.07;;;;;;;18.20;100.00;100588.63;6006402;28;20027;-64
2023/09/12 07:51:59;;;;;;;31.33;18.97;;;;;;;18.28;100.00;100588.47;6006312;28;20124;-65
2023/09/12 07:55:02;;;;;;;36.13;18.33;;;;;;;18.30;100.00;100580.19;6005531;28;20349;-65
2023/09/12 07:57:57;;;;;;;34.03;19.75;;;;;;;18.17;100.00;100580.97;6005359;28;20035;-65
2023/09/12 08:00:53;;;;;;;29.87;18.13;;;;;;;18.35;100.00;100593.84;6006243;28;20062;-65
2023/09/12 08:03:48;;;;;;;32.30;18.13;;;;;;;18.41;100.00;100593.91;6005337;28;20041;-65
2023/09/12 08:06:43;;;;;;;32.23;17.10;;;;;;;18.47;100.00;100600.31;6005749;28;20106;-65
2023/09/12 08:09:52;;;;;;;30.53;16.07;;;;;;;18.45;100.00;100599.72;6008107;28;20079;-65
2023/09/12 08:12:47;;;;;;;25.80;14.77;;;;;;;18.55;100.00;100602.03;6006017;28;20034;-65
2023/09/12 08:15:43;;;;;;;25.67;13.90;;;;;;;18.74;100.00;100602.13;6004908;28;20092;-65
2023/09/12 08:18:38;;;;;;;28.40;13.75;;;;;;;18.84;100.00;100602.56;6005311;28;20023;-64
2023/09/12 08:21:33;;;;;;;23.30;13.20;;;;;;;19.00;100.00;100610.25;6005548;28;20043;-64
2023/09/12 08:24:29;;;;;;;22.77;12.60;;;;;;;19.15;100.00;100620.00;6004749;28;20174;-65
2023/09/12 08:27:24;;;;;;;24.40;12.57;;;;;;;19.39;100.00;100631.03;6000741;28;20517;-65
2023/09/12 08:30:19;;;;;;;19.60;11.23;;;;;;;19.34;100.00;100629.97;6002364;28;20038;-65
2023/09/12 08:33:15;;;;;;;18.10;10.13;;;;;;;19.47;100.00;100633.53;6004524;28;20117;-65
2023/09/12 08:36:10;;;;;;;19.60;10.02;;;;;;;19.55;100.00;100644.09;6003654;28;20038;-65
2023/09/12 08:39:08;;;;;;;16.33;9.90;;;;;;;19.76;100.00;100656.50;6020079;28;20089;-66
2023/09/12 08:42:03;;;;;;;17.02;8.63;;;;;;;19.87;100.00;100666.66;6005295;28;20023;-66
2023/09/12 08:44:58;;;;;;;14.77;7.60;;;;;;;19.90;100.00;100682.38;6000627;28;20039;-65
2023/09/12 08:47:55;;;;;;;17.73;8.10;;;;;;;20.11;100.00;100703.72;6004677;28;20097;-65
2023/09/12 08:50:51;;;;;;;13.32;7.85;;;;;;;20.18;100.00;100717.19;6001948;28;20037;-65
2023/09/12 08:53:46;;;;;;;15.02;8.57;;;;;;;20.13;100.00;100725.91;6002348;28;20389;-66
2023/09/12 08:56:43;;;;;;;13.70;7.80;;;;;;;20.16;100.00;100747.00;6000266;28;20453;-65
2023/09/12 08:59:39;;;;;;;14.02;8.20;;;;;;;19.97;100.00;100741.63;6002704;28;20045;-65
2023/09/12 09:02:38;;;;;;;16.42;8.30;;;;;;;20.13;100.00;100750.13;6000919;28;20470;-65
2023/09/12 09:05:35;;;;;;;17.55;8.60;;;;;;;20.00;100.00;100750.09;5993825;28;20030;-65
2023/09/12 09:08:31;;;;;;;15.73;9.00;;;;;;;20.23;100.00;100747.00;6007347;28;20053;-65
2023/09/12 09:11:27;;;;;;;14.73;8.90;;;;;;;20.42;100.00;100723.81;6005940;28;20113;-65
2023/09/12 09:14:23;;;;;;;15.93;8.95;;;;;;;20.63;100.00;100739.72;6002317;28;20054;-65
2023/09/12 09:17:19;;;;;;;16.13;9.38;;;;;;;20.89;100.00;100736.16;6005560;28;20433;-65
2023/09/12 09:20:22;;;;;;;16.23;9.77;;;;;;;20.89;100.00;100742.38;6003725;28;20474;-65
2023/09/12 09:23:17;;;;;;;17.05;9.15;;;;;;;20.85;100.00;100757.28;6001879;28;20488;-65
2023/09/12 09:26:13;;;;;;;16.30;9.43;;;;;;;20.76;100.00;100753.19;5998285;28;20045;-66
2023/09/12 09:29:09;;;;;;;17.35;9.88;;;;;;;20.75;100.00;100762.31;6003222;28;20107;-65
2023/09/12 09:32:17;;;;;;;15.55;9.52;;;;;;;20.71;100.00;100755.66;6003874;28;20058;-65
2023/09/12 09:35:12;;;;;;;16.70;10.13;;;;;;;20.61;100.00;100774.16;6002494;28;20038;-65
2023/09/12 09:38:08;;;;;;;18.17;10.23;;;;;;;20.58;100.00;100785.34;6018557;28;20053;-65
2023/09/12 09:41:04;;;;;;;15.45;10.52;;;;;;;20.60;100.00;100796.75;6008806;28;20101;-65
2023/09/12 09:43:59;;;;;;;16.65;9.77;;;;;;;20.84;100.00;100774.53;6000971;28;20054;-66
2023/09/12 09:47:00;;;;;;;18.02;10.00;;;;;;;21.41;100.00;100783.69;6010968;28;20117;-66
2023/09/12 09:49:59;;;;;;;16.70;9.73;;;;;;;21.53;100.00;100790.88;5996455;28;20042;-65
2023/09/12 09:52:55;;;;;;;16.10;9.32;;;;;;;21.75;100.00;100792.22;6003146;28;20039;-65
2023/09/12 09:55:51;;;;;;;18.58;9.55;;;;;;;22.29;100.00;100798.94;6002159;28;20039;-65
2023/09/12 09:58:56;;;;;;;15.65;9.32;;;;;;;22.54;100.00;100797.06;6003610;28;20615;-66
2023/09/12 10:01:55;;;;;;;15.00;9.07;;;;;;;22.69;100.00;100773.25;5995744;28;20042;-66
2023/09/12 10:04:51;;;;;;;17.50;9.55;;;;;;;22.50;100.00;100783.13;5994612;28;20031;-66
2023/09/12 10:07:50;;;;;;;18.67;9.75;;;;;;;22.08;100.00;100751.50;5995900;28;20066;-65
2023/09/12 10:10:46;;;;;;;17.55;8.95;;;;;;;21.97;100.00;100746.81;6004515;28;20038;-65
2023/09/12 10:13:49;;;;;;;14.52;8.63;;;;;;;21.88;100.00;100758.91;6000544;28;20038;-66
2023/09/12 10:16:47;;;;;;;15.65;8.82;;;;;;;21.93;100.00;100746.41;6022276;28;20038;-65
2023/09/12 10:19:51;;;;;;;11.95;8.50;;;;;;;21.89;100.00;100722.78;6002517;28;20026;-66
2023/09/12 10:23:20;;;;;;;14.43;8.32;;;;;;;22.30;100.00;100758.19;6017218;28;20030;-66
2023/09/12 10:26:15;;;;;;;12.07;8.05;;;;;;;22.51;100.00;100762.34;5988979;28;20050;-65
2023/09/12 10:29:15;;;;;;;12.27;7.63;;;;;;;22.21;100.00;100753.25;6000717;28;20037;-66
2023/09/12 10:32:10;;;;;;;;;;;;;;;22.35;100.00;100755.66;6002714;28;20030;-66
2023/09/12 10:35:06;;;;;;;16.40;8.20;;;;;;;22.17;100.00;100752.91;6015864;28;19914;-66
2023/09/12 10:38:05;;;;;;;15.82;9.10;;;;;;;22.05;100.00;100761.91;6016692;28;20409;-66
2023/09/12 10:41:03;;;;;;;15.55;8.80;;;;;;;22.28;100.00;100752.19;6001891;28;20030;-66
2023/09/12 10:43:59;;;;;;;12.90;7.70;;;;;;;22.29;100.00;100755.69;6016254;28;20069;-66
2023/09/12 10:46:54;;;;;;;15.65;8.32;;;;;;;22.16;100.00;100751.25;6017097;28;20126;-65
2023/09/12 10:49:50;;;;;;;14.10;8.65;;;;;;;21.93;100.00;100745.63;6001908;28;20501;-65
2023/09/12 10:52:45;;;;;;;13.45;7.32;;;;;;;21.95;100.00;100754.31;6001578;28;20066;-66
2023/09/12 10:55:41;;;;;;;11.60;6.55;;;;;;;22.09;100.00;100763.97;6000953;28;20117;-65
2023/09/12 10:59:04;;;;;;;9.63;5.45;;;;;;;22.13;100.00;100754.38;6001236;28;20113;-65
2023/09/12 11:02:33;;;;;;;8.50;5.50;;;;;;;22.19;100.00;100774.28;5995209;28;20162;-66
2023/09/12 11:05:28;;;;;;;9.43;5.38;;;;;;;22.43;100.00;100774.28;5988961;28;20047;-65
2023/09/12 11:08:24;;;;;;;7.35;5.13;;;;;;;22.68;100.00;100759.94;5998744;28;20105;-65
2023/09/12 11:11:20;;;;;;;9.55;5.22;;;;;;;22.41;100.00;100753.94;6002510;28;20045;-66
2023/09/12 11:14:16;;;;;;;7.95;4.45;;;;;;;22.30;100.00;100751.94;5997928;28;20046;-66
2023/09/12 11:17:12;;;;;;;6.78;4.03;;;;;;;22.22;100.00;100766.56;5997915;28;20046;-66
2023/09/12 11:20:11;;;;;;;7.95;4.35;;;;;;;21.92;100.00;100754.75;5999111;28;20394;-66
2023/09/12 11:23:11;;;;;;;6.82;4.50;;;;;;;21.92;100.00;100754.75;5996164;28;20038;-66
2023/09/12 11:26:07;;;;;;;7.00;4.55;;;;;;;21.72;100.00;100754.84;5999395;28;20027;-65
2023/09/12 11:29:12;;;;;;;7.10;4.65;;;;;;;21.70;100.00;100746.16;6000743;28;20034;-66
2023/09/12 11:32:08;;;;;;;6.70;4.50;;;;;;;21.66;100.00;100773.81;6001605;28;20089;-66
2023/09/12 11:35:07;;;;;;;6.60;4.25;;;;;;;21.49;100.00;100775.34;6000976;28;20035;-66
2023/09/12 11:38:03;;;;;;;7.47;4.18;;;;;;;21.65;100.00;100786.47;6001776;28;20019;-66
2023/09/12 11:40:59;;;;;;;8.68;4.00;;;;;;;21.70;100.00;100783.94;6002368;28;20038;-65
2023/09/12 11:43:55;;;;;;;6.65;3.97;;;;;;;21.24;100.00;100778.78;5993713;28;20037;-65
2023/09/12 11:46:50;;;;;;;8.18;3.75;;;;;;;21.12;100.00;100791.25;6001402;28;20038;-66
2023/09/12 11:49:46;;;;;;;6.07;3.70;;;;;;;21.16;100.00;100803.31;6001822;28;20061;-65
2023/09/12 11:52:41;;;;;;;7.15;4.13;;;;;;;20.90;100.00;100776.34;6001382;28;20054;-65
2023/09/12 11:55:44;;;;;;;5.33;3.13;;;;;;;21.21;100.00;100790.00;6000625;28;20493;-66
2023/09/12 11:58:39;;;;;;;5.32;3.28;;;;;;;21.03;100.00;100822.19;6000532;28;20466;-66
2023/09/12 12:01:35;;;;;;;5.47;3.23;;;;;;;20.83;100.00;100801.69;6001564;28;20031;-66
2023/09/12 12:04:30;;;;;;;5.27;3.43;;;;;;;20.56;100.00;100822.47;6000641;28;20022;-66
2023/09/12 12:07:25;;;;;;;8.40;3.57;;;;;;;20.16;100.00;100794.66;6000691;28;20054;-66
2023/09/12 12:10:23;;;;;;;6.57;3.50;;;;;;;20.31;100.00;100805.25;5991350;28;20612;-65
2023/09/12 12:13:19;;;;;;;7.78;3.55;;;;;;;20.34;100.00;100812.94;6005454;28;20357;-66
2023/09/12 12:16:17;;;;;;;7.53;3.58;;;;;;;20.19;100.00;100811.22;6004634;28;20039;-66
2023/09/12 12:19:14;;;;;;;6.22;3.90;;;;;;;20.33;100.00;100825.56;6007985;28;20031;-65
2023/09/12 12:22:09;;;;;;;7.03;3.63;;;;;;;20.32;100.00;100809.63;6005519;28;20034;-65
2023/09/12 12:25:09;;;;;;;7.10;3.53;;;;;;;20.18;100.00;100811.44;6004529;28;20293;-66
2023/09/12 12:28:04;;;;;;;6.97;3.83;;;;;;;20.03;100.00;100819.69;6005253;28;20033;-66
2023/09/12 12:30:59;;;;;;;7.07;4.00;;;;;;;20.07;100.00;100785.97;6005513;28;20027;-66
2023/09/12 12:33:56;;;;;;;6.07;3.37;;;;;;;20.21;100.00;100759.84;6003503;28;20442;-65
2023/09/12 12:36:51;;;;;;;6.45;3.67;;;;;;;20.40;100.00;100747.44;6000011;28;20033;-65
2023/09/12 12:39:46;;;;;;;8.20;3.80;;;;;;;20.49;100.00;100751.59;6003820;28;20019;-65
2023/09/12 12:42:43;;;;;;;7.43;3.50;;;;;;;20.60;100.00;100732.09;6004979;28;20027;-66
2023/09/12 12:45:38;;;;;;;7.10;3.80;;;;;;;20.56;100.00;100725.44;6004106;28;20078;-66
2023/09/12 12:48:36;;;;;;;7.53;3.80;;;;;;;20.52;100.00;100721.53;6003672;28;20470;-66
2023/09/12 12:51:33;;;;;;;7.38;4.15;;;;;;;20.60;100.00;100688.97;6004665;28;20393;-66
2023/09/12 12:54:31;;;;;;;12.10;5.30;;;;;;;20.04;100.00;100605.13;6004023;28;20031;-69
2023/09/12 12:57:27;;;;;;;10.30;5.60;;;;;;;19.27;100.00;100605.75;6004549;28;20038;-66
2023/09/12 13:00:23;;;;;;;12.07;6.50;;;;;;;18.89;100.00;100570.53;6003655;28;20042;-66
2023/09/12 13:03:18;;;;;;;10.95;6.35;;;;;;;18.91;100.00;100581.91;6004526;28;20027;-67
2023/09/12 13:06:14;;;;;;;13.20;6.33;;;;;;;19.07;100.00;100614.81;6003871;28;20070;-66
2023/09/12 13:09:11;;;;;;;11.05;6.75;;;;;;;19.22;100.00;100618.16;6009113;28;20331;-66
2023/09/12 13:12:08;;;;;;;10.23;5.97;;;;;;;19.32;100.00;100648.97;6005068;28;20616;-66
2023/09/12 13:15:06;;;;;;;10.20;5.78;;;;;;;19.59;100.00;100655.28;6003696;28;20027;-66
2023/09/12 13:18:01;;;;;;;8.75;5.35;;;;;;;19.55;100.00;100651.31;5996920;28;20370;-66
2023/09/12 13:20:57;;;;;;;8.00;5.23;;;;;;;19.55;100.00;100651.31;6003946;28;20062;-66